Time;durP1;ratioP1;P1;durP2;ratioP2;P2;SDS_P1;SDS_P2;PMS_P1;PMS_P2;Temp;Humidity;BMP_temperature;BMP_pressure;BME280_temperature;BME280_humidity;BME280_pressure;Samples;Min_cycle;Max_cycle;Signal;HPM_P1;HPM_P2
2023/07/08 03:01:55;;;;;;;3.55;2.80;;;26.40;34.60;;;;;;5300753;23;48104;-56
2023/07/08 03:04:21;;;;;;;5.10;3.67;;;26.40;34.50;;;;;;4993845;28;44712;-56
2023/07/08 03:06:49;;;;;;;4.43;3.17;;;26.40;34.50;;;;;;4981816;28;45908;-57
2023/07/08 03:09:15;;;;;;;4.90;3.42;;;26.40;34.50;;;;;;5005259;28;44950;-55
2023/07/08 03:11:41;;;;;;;3.67;3.30;;;26.40;34.50;;;;;;4988002;28;45254;-58
2023/07/08 03:14:06;;;;;;;3.58;2.88;;;26.30;34.40;;;;;;4992326;28;45645;-60
2023/07/08 03:16:32;;;;;;;3.58;2.67;;;26.40;34.50;;;;;;4994958;28;46272;-58
2023/07/08 03:18:57;;;;;;;4.30;2.75;;;26.30;34.40;;;;;;5005556;28;44888;-57
2023/07/08 03:21:23;;;;;;;3.30;2.70;;;26.30;34.50;;;;;;5003378;28;45080;-61
2023/07/08 03:23:49;;;;;;;5.50;3.45;;;26.30;34.50;;;;;;4959685;28;45130;-56
2023/07/08 03:26:16;;;;;;;4.70;3.40;;;26.30;34.50;;;;;;4998438;28;45794;-57
2023/07/08 03:28:42;;;;;;;5.85;3.33;;;26.30;34.50;;;;;;4990086;28;44955;-59
2023/07/08 03:31:09;;;;;;;5.40;3.75;;;26.30;34.50;;;;;;4993335;28;45131;-56
2023/07/08 03:33:34;;;;;;;3.67;3.20;;;26.20;34.40;;;;;;4955443;28;45255;-58
2023/07/08 03:36:01;;;;;;;6.20;3.40;;;26.20;34.50;;;;;;4997995;28;45471;-57
2023/07/08 03:38:29;;;;;;;4.03;3.13;;;26.20;34.50;;;;;;5005563;28;45108;-58
2023/07/08 03:40:55;;;;;;;4.30;3.42;;;26.20;34.50;;;;;;5003432;28;45301;-59
2023/07/08 03:43:20;;;;;;;3.75;3.13;;;26.20;34.50;;;;;;5008417;28;45246;-62
2023/07/08 03:45:46;;;;;;;4.22;3.20;;;26.20;34.50;;;;;;5000837;28;45095;-56
2023/07/08 03:48:12;;;;;;;4.88;3.13;;;26.20;34.50;;;;;;4979512;28;45061;-58
2023/07/08 03:50:37;;;;;;;4.32;3.50;;;26.20;34.50;;;;;;5004528;28;45183;-57
2023/07/08 03:53:03;;;;;;;3.38;2.70;;;26.20;34.50;;;;;;5008943;28;45442;-56
2023/07/08 03:55:29;;;;;;;5.25;3.17;;;26.10;34.50;;;;;;4999692;28;46459;-59
2023/07/08 03:57:54;;;;;;;3.90;3.17;;;26.10;34.50;;;;;;4970959;28;45152;-58
2023/07/08 04:00:20;;;;;;;5.03;3.10;;;26.10;34.60;;;;;;4999273;28;45058;-57
2023/07/08 04:02:45;;;;;;;4.03;3.33;;;26.10;34.50;;;;;;5003866;28;45640;-54
2023/07/08 04:05:19;;;;;;;3.50;3.20;;;26.10;34.50;;;;;;4988971;28;45881;-58
2023/07/08 04:07:45;;;;;;;4.00;2.80;;;26.10;34.60;;;;;;4991256;28;44950;-60
2023/07/08 04:10:11;;;;;;;3.78;3.05;;;26.00;34.50;;;;;;5004195;28;45195;-58
2023/07/08 04:12:36;;;;;;;4.38;2.88;;;26.00;34.50;;;;;;4990254;28;45222;-56
2023/07/08 04:15:03;;;;;;;3.70;3.00;;;26.00;34.50;;;;;;5005543;28;45986;-63
2023/07/08 04:17:28;;;;;;;3.15;2.75;;;26.00;34.40;;;;;;4967635;28;45277;-58
2023/07/08 04:19:56;;;;;;;4.05;3.15;;;26.00;34.40;;;;;;4996037;28;45211;-58
2023/07/08 04:22:22;;;;;;;3.88;2.85;;;26.00;34.50;;;;;;5000945;28;45211;-58
2023/07/08 04:24:48;;;;;;;4.35;3.28;;;26.00;34.50;;;;;;5006724;28;46202;-58
2023/07/08 04:27:15;;;;;;;4.47;3.17;;;26.00;34.50;;;;;;5000991;28;45124;-55
2023/07/08 04:29:40;;;;;;;5.40;3.30;;;26.00;34.60;;;;;;5007700;28;45558;-54
2023/07/08 04:32:06;;;;;;;5.03;3.47;;;26.00;34.70;;;;;;4999488;28;45369;-55
2023/07/08 04:34:32;;;;;;;5.55;3.15;;;26.00;34.70;;;;;;5007142;28;46098;-58
2023/07/08 04:36:57;;;;;;;4.38;3.30;;;26.00;34.70;;;;;;4985856;28;45234;-58
2023/07/08 04:39:23;;;;;;;3.78;3.00;;;26.00;34.70;;;;;;4988742;28;45439;-55
2023/07/08 04:41:49;;;;;;;4.70;3.30;;;26.00;34.80;;;;;;5002952;28;46009;-59
2023/07/08 04:44:16;;;;;;;4.05;3.25;;;25.90;34.80;;;;;;4997094;28;46131;-58
2023/07/08 04:46:46;;;;;;;6.55;3.17;;;25.90;34.80;;;;;;4998711;28;45271;-56
2023/07/08 04:49:13;;;;;;;4.13;3.20;;;25.90;34.80;;;;;;4972014;28;44813;-56
2023/07/08 04:51:39;;;;;;;5.10;3.28;;;25.90;34.90;;;;;;4999071;28;45190;-58
2023/07/08 04:54:04;;;;;;;4.32;3.17;;;25.90;34.90;;;;;;5008412;28;46161;-56
2023/07/08 04:56:49;;;;;;;5.63;3.08;;;25.90;34.90;;;;;;5000271;28;44870;-58
2023/07/08 04:59:16;;;;;;;3.45;2.95;;;26.00;35.30;;;;;;5006861;28;45201;-56
2023/07/08 05:01:41;;;;;;;4.70;3.25;;;25.90;35.00;;;;;;4994753;28;45396;-58
2023/07/08 05:04:07;;;;;;;4.07;2.95;;;25.90;35.00;;;;;;4995102;28;45953;-58
2023/07/08 05:06:33;;;;;;;4.97;2.95;;;26.00;35.20;;;;;;5001340;28;45454;-56
2023/07/08 05:08:59;;;;;;;4.00;3.13;;;25.90;35.10;;;;;;5006237;28;45287;-53
2023/07/08 05:11:24;;;;;;;4.07;3.13;;;25.90;35.80;;;;;;5000031;28;44804;-55
2023/07/08 05:13:50;;;;;;;4.88;3.00;;;25.90;35.20;;;;;;5009689;28;45047;-57
2023/07/08 05:16:16;;;;;;;4.20;2.90;;;25.90;35.30;;;;;;4995029;28;45279;-58
2023/07/08 05:18:41;;;;;;;5.47;2.60;;;25.90;35.30;;;;;;4992044;28;44937;-55
2023/07/08 05:21:08;;;;;;;3.42;2.60;;;25.90;35.40;;;;;;4998346;28;45321;-55
2023/07/08 05:23:33;;;;;;;4.72;2.90;;;25.90;35.40;;;;;;5004541;28;45715;-56
2023/07/08 05:26:00;;;;;;;3.92;3.00;;;26.00;35.50;;;;;;5001916;28;45546;-59
2023/07/08 05:28:26;;;;;;;4.32;3.20;;;26.00;35.60;;;;;;5005099;28;44918;-59
2023/07/08 05:30:55;;;;;;;3.70;2.95;;;26.00;35.60;;;;;;4995971;28;45626;-56
2023/07/08 05:33:22;;;;;;;3.83;2.92;;;26.00;35.80;;;;;;5002741;28;45373;-59
2023/07/08 05:35:47;;;;;;;4.72;3.05;;;26.00;35.70;;;;;;4968637;28;45242;-61
2023/07/08 05:38:13;;;;;;;4.43;3.30;;;26.00;35.70;;;;;;5006841;28;45423;-55
2023/07/08 05:40:38;;;;;;;5.28;3.28;;;26.00;35.80;;;;;;4998589;28;45077;-58
2023/07/08 05:43:04;;;;;;;4.20;3.20;;;26.00;35.90;;;;;;5006623;28;46105;-60
2023/07/08 05:45:30;;;;;;;4.43;3.15;;;26.10;35.90;;;;;;4980361;28;45172;-58
2023/07/08 05:47:55;;;;;;;3.55;2.85;;;26.10;36.00;;;;;;4992347;28;45069;-60
2023/07/08 05:50:21;;;;;;;4.30;3.00;;;26.10;36.00;;;;;;5002516;28;44820;-57
2023/07/08 05:52:46;;;;;;;7.22;3.00;;;26.10;36.00;;;;;;5001381;28;45630;-58
2023/07/08 05:55:12;;;;;;;3.70;3.17;;;26.10;36.10;;;;;;5001408;28;45216;-59
2023/07/08 05:57:38;;;;;;;3.33;3.03;;;26.10;36.10;;;;;;5006148;28;44983;-56
2023/07/08 06:00:04;;;;;;;5.45;3.03;;;26.20;36.30;;;;;;5007479;28;45659;-62
2023/07/08 06:02:30;;;;;;;4.05;3.08;;;26.10;36.30;;;;;;4966168;28;45688;-56
2023/07/08 06:04:56;;;;;;;5.90;3.13;;;26.10;36.30;;;;;;5005509;28;44940;-58
2023/07/08 06:07:21;;;;;;;7.70;3.45;;;26.10;36.30;;;;;;5001185;28;45417;-54
2023/07/08 06:09:47;;;;;;;3.53;3.00;;;26.20;36.30;;;;;;5005398;28;44991;-57
2023/07/08 06:12:12;;;;;;;4.00;3.00;;;26.20;36.10;;;;;;4997786;28;45307;-56
2023/07/08 06:14:38;;;;;;;5.20;2.70;;;26.30;36.20;;;;;;5007728;28;45513;-58
2023/07/08 06:17:04;;;;;;;4.10;3.10;;;26.30;36.20;;;;;;4995669;28;45171;-56
2023/07/08 06:19:30;;;;;;;5.03;3.08;;;26.30;36.20;;;;;;5003727;28;44904;-54
2023/07/08 06:21:55;;;;;;;4.68;2.75;;;26.30;36.10;;;;;;5000786;28;45825;-55
2023/07/08 06:24:28;;;;;;;5.38;3.35;;;26.40;36.10;;;;;;5122650;27;45182;-56
2023/07/08 06:26:54;;;;;;;3.60;3.03;;;26.40;36.10;;;;;;5110563;27;44998;-56
2023/07/08 06:29:19;;;;;;;3.97;3.08;;;26.50;36.20;;;;;;5128717;27;45372;-59
2023/07/08 06:31:45;;;;;;;3.85;2.90;;;26.50;36.10;;;;;;5107566;27;45219;-59
2023/07/08 06:34:10;;;;;;;4.07;3.33;;;26.50;36.00;;;;;;5124938;27;45964;-58
2023/07/08 06:36:36;;;;;;;3.63;2.95;;;26.50;35.90;;;;;;5117028;27;44888;-58
2023/07/08 06:39:02;;;;;;;3.78;3.20;;;26.50;35.70;;;;;;5113181;27;45080;-60
2023/07/08 06:41:27;;;;;;;4.18;3.42;;;26.60;35.60;;;;;;5114653;27;44756;-59
2023/07/08 06:43:53;;;;;;;5.30;2.78;;;26.60;35.50;;;;;;5117568;27;45094;-60
2023/07/08 06:46:19;;;;;;;4.50;2.88;;;26.70;35.50;;;;;;5113719;27;44830;-57
2023/07/08 06:48:44;;;;;;;7.03;3.15;;;26.70;35.50;;;;;;5117130;27;45667;-56
2023/07/08 06:51:10;;;;;;;6.78;3.13;;;26.80;35.50;;;;;;5116352;27;45534;-59
2023/07/08 06:53:35;;;;;;;5.72;3.13;;;26.80;35.50;;;;;;5133863;27;45100;-55
2023/07/08 06:56:02;;;;;;;5.22;2.90;;;26.90;35.40;;;;;;5139725;27;44917;-57
2023/07/08 06:58:27;;;;;;;3.88;2.95;;;26.90;35.40;;;;;;5137077;27;45398;-56
2023/07/08 07:00:53;;;;;;;4.35;2.80;;;27.00;35.40;;;;;;5123232;27;45822;-57
2023/07/08 07:03:19;;;;;;;4.55;3.40;;;27.00;35.40;;;;;;5139016;27;46415;-56
2023/07/08 07:05:45;;;;;;;4.00;3.20;;;27.00;35.40;;;;;;5130812;27;44941;-59
2023/07/08 07:08:10;;;;;;;4.07;3.38;;;27.10;35.50;;;;;;5143567;27;44765;-58
2023/07/08 07:10:36;;;;;;;4.20;3.22;;;27.10;35.50;;;;;;5133229;27;44805;-57
2023/07/08 07:13:01;;;;;;;3.95;3.08;;;27.20;35.50;;;;;;5142039;27;46116;-59
2023/07/08 07:15:29;;;;;;;7.15;2.95;;;27.20;35.50;;;;;;5138151;27;44910;-62
2023/07/08 07:17:55;;;;;;;4.50;3.20;;;27.20;35.50;;;;;;5120280;27;44694;-58
2023/07/08 07:20:20;;;;;;;4.20;2.97;;;27.30;35.60;;;;;;5134794;27;45434;-57
2023/07/08 07:22:46;;;;;;;3.28;2.90;;;27.30;35.60;;;;;;5135525;27;46006;-56
2023/07/08 07:25:11;;;;;;;5.75;3.85;;;27.40;35.60;;;;;;5139818;27;45008;-57
2023/07/08 07:27:37;;;;;;;4.78;3.30;;;27.40;35.60;;;;;;5127748;27;45003;-56
2023/07/08 07:30:06;;;;;;;4.60;3.47;;;27.40;35.60;;;;;;5142723;27;44880;-63
2023/07/08 07:32:33;;;;;;;4.05;3.22;;;27.50;35.70;;;;;;5105538;27;45128;-57
2023/07/08 07:34:59;;;;;;;5.47;3.58;;;27.60;35.70;;;;;;5128308;27;44841;-56
2023/07/08 07:37:25;;;;;;;4.72;3.60;;;27.60;35.60;;;;;;5119966;27;44769;-56
2023/07/08 07:39:50;;;;;;;6.18;3.33;;;27.70;35.70;;;;;;5133156;27;44930;-60
2023/07/08 07:42:16;;;;;;;4.13;3.72;;;27.70;35.70;;;;;;5114569;27;45318;-57
2023/07/08 07:44:42;;;;;;;5.25;4.03;;;27.70;35.60;;;;;;5121351;27;45084;-60
2023/07/08 07:47:08;;;;;;;6.97;3.65;;;27.70;35.60;;;;;;5109898;27;46529;-58
2023/07/08 07:49:34;;;;;;;6.53;3.72;;;27.80;35.70;;;;;;5140219;27;45883;-57
2023/07/08 07:51:59;;;;;;;6.07;3.25;;;27.80;35.60;;;;;;5133341;27;45986;-59
2023/07/08 07:54:25;;;;;;;7.85;3.58;;;27.90;35.60;;;;;;5134956;27;44963;-59
2023/07/08 07:56:51;;;;;;;5.03;3.55;;;27.90;35.60;;;;;;5120423;27;44805;-59
2023/07/08 07:59:17;;;;;;;5.40;3.70;;;27.90;35.50;;;;;;5143247;27;45144;-58
2023/07/08 08:01:43;;;;;;;8.13;3.38;;;28.00;35.50;;;;;;5118298;27;45932;-59
2023/07/08 08:04:10;;;;;;;5.35;3.38;;;28.00;35.30;;;;;;5126673;27;44949;-59
2023/07/08 08:06:35;;;;;;;4.47;3.45;;;28.10;35.30;;;;;;5142938;27;45990;-59
2023/07/08 08:09:01;;;;;;;6.10;3.38;;;28.10;35.20;;;;;;5144758;27;44793;-59
2023/07/08 08:11:26;;;;;;;3.90;3.17;;;28.10;35.10;;;;;;5142274;27;46114;-59
2023/07/08 08:13:52;;;;;;;4.28;3.53;;;28.20;35.10;;;;;;5145779;27;45028;-59
2023/07/08 08:16:18;;;;;;;5.32;3.40;;;28.20;35.00;;;;;;5136931;27;44998;-56
2023/07/08 08:18:47;;;;;;;5.10;3.35;;;28.30;34.90;;;;;;5150777;27;45249;-64
2023/07/08 08:21:13;;;;;;;8.02;3.70;;;28.30;34.70;;;;;;5142549;27;45538;-53
2023/07/08 08:23:39;;;;;;;4.32;3.20;;;28.40;34.70;;;;;;5136332;27;45277;-54
2023/07/08 08:26:04;;;;;;;3.63;3.00;;;28.40;34.60;;;;;;5123810;27;45216;-60
2023/07/08 08:28:30;;;;;;;5.38;3.30;;;28.40;34.60;;;;;;5149907;27;44877;-57
2023/07/08 08:30:55;;;;;;;6.32;3.78;;;28.50;34.50;;;;;;5139023;27;44938;-55
2023/07/08 08:33:21;;;;;;;4.43;3.10;;;28.50;34.40;;;;;;5145177;27;44591;-59
2023/07/08 08:35:46;;;;;;;4.22;3.80;;;28.60;34.40;;;;;;5124690;27;45034;-59
2023/07/08 08:38:12;;;;;;;3.47;2.97;;;28.60;34.20;;;;;;5133244;27;45144;-59
2023/07/08 08:40:39;;;;;;;5.07;3.63;;;28.60;34.20;;;;;;5145329;27;45944;-60
2023/07/08 08:43:35;;;;;;;3.75;2.90;;;28.60;34.10;;;;;;5130700;27;44848;-58
2023/07/08 08:46:12;;;;;;;5.72;3.25;;;28.70;33.90;;;;;;5119746;27;44895;-57
2023/07/08 08:49:06;;;;;;;4.90;3.05;;;28.70;33.90;;;;;;5111941;27;44965;-57
2023/07/08 08:51:32;;;;;;;4.50;2.97;;;28.80;33.80;;;;;;5140231;27;46148;-57
2023/07/08 08:53:58;;;;;;;3.78;2.80;;;28.80;33.90;;;;;;5126930;27;44928;-58
2023/07/08 08:56:34;;;;;;;6.32;2.95;;;28.80;34.00;;;;;;5144693;27;45518;-58
2023/07/08 08:59:08;;;;;;;5.50;3.25;;;28.90;34.00;;;;;;5114468;27;45142;-54
2023/07/08 09:01:34;;;;;;;3.35;2.67;;;28.90;34.00;;;;;;5135021;27;45334;-57
2023/07/08 09:04:24;;;;;;;5.53;2.80;;;28.90;34.10;;;;;;5125362;27;44917;-58
2023/07/08 09:06:49;;;;;;;8.07;3.30;;;28.90;34.10;;;;;;5146054;27;45066;-61
2023/07/08 09:12:56;;;;;;;5.53;2.92;;;28.90;34.20;;;;;;5139673;27;45092;-60
2023/07/08 09:15:21;;;;;;;4.28;3.08;;;28.90;34.30;;;;;;5122183;27;44913;-53
2023/07/08 09:17:47;;;;;;;5.18;3.40;;;28.90;34.20;;;;;;5141939;27;44866;-57
2023/07/08 09:20:22;;;;;;;6.55;2.92;;;28.90;34.20;;;;;;5122205;27;45152;-58
2023/07/08 09:23:08;;;;;;;5.60;2.75;;;28.90;34.30;;;;;;5120141;27;45856;-54
2023/07/08 09:25:43;;;;;;;4.60;3.03;;;28.90;34.40;;;;;;5129641;27;45307;-57
2023/07/08 09:28:08;;;;;;;5.82;3.90;;;28.90;34.40;;;;;;5114229;27;45208;-56
2023/07/08 09:30:34;;;;;;;4.25;3.05;;;28.90;34.40;;;;;;5141012;27;45215;-54
2023/07/08 09:33:03;;;;;;;5.57;3.35;;;28.90;34.50;;;;;;5121602;27;46000;-58
2023/07/08 09:35:37;;;;;;;4.53;3.30;;;29.00;34.60;;;;;;5139862;27;45282;-56
2023/07/08 09:38:07;;;;;;;4.63;3.35;;;29.00;34.60;;;;;;5147634;27;44875;-54
2023/07/08 09:40:33;;;;;;;6.28;3.53;;;29.00;34.80;;;;;;5144291;27;44733;-56
2023/07/08 09:43:01;;;;;;;4.70;3.47;;;29.00;34.70;;;;;;5145104;27;46334;-55
2023/07/08 09:45:27;;;;;;;4.32;3.13;;;29.00;34.70;;;;;;5136291;27;44857;-61
2023/07/08 09:47:57;;;;;;;8.50;2.85;;;29.00;34.70;;;;;;5126603;27;44989;-60
2023/07/08 09:50:25;;;;;;;7.18;3.33;;;29.00;34.70;;;;;;5134079;27;45141;-56
2023/07/08 09:53:01;;;;;;;6.60;3.00;;;29.00;34.70;;;;;;5134596;27;45665;-54
2023/07/08 09:55:28;;;;;;;5.60;2.83;;;29.10;34.70;;;;;;5130550;27;44840;-60
2023/07/08 09:57:54;;;;;;;5.75;3.10;;;29.10;34.70;;;;;;5124831;27;45035;-60
2023/07/08 10:00:27;;;;;;;7.10;2.97;;;29.10;34.70;;;;;;5131215;27;44883;-55
2023/07/08 10:02:57;;;;;;;8.35;3.13;;;29.10;34.80;;;;;;5117521;27;45263;-55
2023/07/08 10:05:37;;;;;;;5.40;3.05;;;29.10;34.70;;;;;;5128351;27;45076;-56
2023/07/08 10:08:11;;;;;;;4.25;3.13;;;29.10;34.80;;;;;;5117697;27;45155;-57
2023/07/08 10:10:37;;;;;;;7.63;2.90;;;29.20;34.80;;;;;;5114975;27;45044;-56
2023/07/08 10:13:37;;;;;;;4.28;3.33;;;29.10;34.70;;;;;;5102275;27;46214;-57
2023/07/08 10:16:20;;;;;;;4.22;3.08;;;29.20;34.80;;;;;;5133363;27;44889;-59
2023/07/08 10:18:46;;;;;;;;;;;29.20;34.80;;;;;;5119571;27;45106;-60
2023/07/08 10:21:26;;;;;;;4.75;2.42;;;29.20;34.90;;;;;;5102202;27;45576;-55
2023/07/08 10:24:14;;;;;;;3.90;2.72;;;29.20;34.80;;;;;;5091337;27;46855;-55
2023/07/08 10:26:40;;;;;;;3.30;2.38;;;29.20;34.70;;;;;;5101993;27;45538;-54
2023/07/08 10:29:28;;;;;;;3.90;2.92;;;29.20;34.70;;;;;;5093057;27;45205;-57
2023/07/08 10:32:07;;;;;;;3.83;2.88;;;29.20;34.70;;;;;;5097568;27;45334;-55
2023/07/08 10:34:42;;;;;;;4.93;2.65;;;29.20;34.70;;;;;;5105753;27;47074;-56
2023/07/08 10:37:17;;;;;;;3.35;2.80;;;29.20;34.60;;;;;;5094692;27;45200;-57
2023/07/08 10:40:07;;;;;;;4.45;2.88;;;29.20;34.70;;;;;;5107491;27;45232;-58
2023/07/08 10:42:37;;;;;;;3.38;2.63;;;29.30;34.80;;;;;;5101040;27;45358;-53
2023/07/08 10:45:13;;;;;;;3.38;2.90;;;29.30;34.90;;;;;;5106834;27;46487;-60
2023/07/08 10:48:15;;;;;;;4.78;3.15;;;29.30;34.70;;;;;;5093809;27;45299;-57
2023/07/08 10:50:48;;;;;;;5.20;2.92;;;29.30;34.80;;;;;;5098526;27;45491;-57
2023/07/08 10:53:38;;;;;;;3.10;2.35;;;29.30;34.80;;;;;;5091334;27;45410;-55
2023/07/08 10:56:13;;;;;;;8.95;3.38;;;29.30;34.80;;;;;;5100905;27;46178;-56
2023/07/08 10:59:15;;;;;;;4.38;3.00;;;29.30;34.80;;;;;;5102040;27;45422;-57
2023/07/08 11:01:44;;;;;;;4.75;2.60;;;29.40;34.90;;;;;;5098704;27;45375;-54
2023/07/08 11:04:16;;;;;;;7.80;2.95;;;29.30;34.80;;;;;;5100166;27;45428;-57
2023/07/08 11:06:50;;;;;;;4.22;3.20;;;29.40;34.80;;;;;;5100006;27;46073;-56
2023/07/08 11:09:21;;;;;;;3.35;3.05;;;29.40;34.80;;;;;;5067794;27;45756;-56
2023/07/08 11:11:56;;;;;;;5.18;3.20;;;29.40;34.80;;;;;;5090958;27;45369;-58
2023/07/08 11:14:47;;;;;;;3.97;2.60;;;29.40;34.80;;;;;;5091219;27;45407;-59
2023/07/08 11:17:25;;;;;;;4.07;2.90;;;29.40;34.90;;;;;;5090976;27;46237;-57
2023/07/08 11:20:00;;;;;;;5.22;2.90;;;29.40;34.90;;;;;;5078401;27;45390;-53
2023/07/08 11:22:27;;;;;;;4.47;2.15;;;29.40;34.80;;;;;;5077871;27;44690;-55
2023/07/08 11:24:53;;;;;;;4.05;2.83;;;29.40;34.80;;;;;;5084213;27;45388;-54
2023/07/08 11:27:27;;;;;;;6.32;2.88;;;29.40;34.80;;;;;;5087950;27;46551;-55
2023/07/08 11:30:02;;;;;;;3.22;2.85;;;29.50;34.90;;;;;;5104596;27;45284;-56
2023/07/08 11:32:29;;;;;;;3.03;2.70;;;29.40;34.80;;;;;;5094141;27;45248;-55
2023/07/08 11:34:55;;;;;;;5.00;2.63;;;29.50;34.80;;;;;;5107274;27;45311;-55
2023/07/08 11:37:23;;;;;;;5.75;3.10;;;29.50;34.80;;;;;;5098914;27;46833;-55
2023/07/08 11:40:09;;;;;;;3.28;2.35;;;29.50;34.90;;;;;;5109828;27;45279;-55
2023/07/08 11:42:39;;;;;;;3.58;3.13;;;29.50;34.90;;;;;;5104152;27;46087;-60
2023/07/08 11:45:31;;;;;;;3.28;2.97;;;29.50;34.80;;;;;;5106222;27;45756;-58
2023/07/08 11:48:13;;;;;;;2.90;2.60;;;29.60;35.00;;;;;;5097920;27;47054;-56
2023/07/08 11:50:43;;;;;;;3.70;3.00;;;29.60;35.00;;;;;;5103434;27;45424;-55
2023/07/08 11:53:13;;;;;;;4.07;3.40;;;29.40;34.40;;;;;;5108467;27;45407;-59
2023/07/08 11:55:47;;;;;;;2.95;2.67;;;29.20;34.40;;;;;;5105833;27;45305;-59
2023/07/08 11:58:21;;;;;;;4.57;3.42;;;28.90;34.30;;;;;;5113478;27;46220;-58
2023/07/08 12:01:10;;;;;;;5.38;2.63;;;28.70;34.80;;;;;;5095407;27;45359;-58
2023/07/08 12:03:40;;;;;;;3.97;3.17;;;28.60;34.90;;;;;;5103062;27;45408;-55
2023/07/08 12:06:25;;;;;;;3.45;2.80;;;28.40;35.00;;;;;;5098095;27;46364;-54
2023/07/08 12:08:54;;;;;;;4.10;3.55;;;28.30;34.80;;;;;;5105445;27;45519;-56
2023/07/08 12:11:24;;;;;;;4.63;3.40;;;28.30;35.00;;;;;;5082409;27;45550;-58
2023/07/08 12:13:50;;;;;;;3.65;2.88;;;28.20;35.00;;;;;;5112687;27;45437;-58
2023/07/08 12:16:15;;;;;;;3.78;3.00;;;28.10;35.30;;;;;;5070619;27;45347;-58
2023/07/08 12:18:45;;;;;;;3.88;2.80;;;28.00;35.50;;;;;;5076366;27;46148;-61
2023/07/08 12:21:12;;;;;;;3.55;2.35;;;28.10;35.30;;;;;;5076322;27;45418;-54
2023/07/08 12:23:42;;;;;;;3.03;2.03;;;28.30;35.10;;;;;;5100348;27;45364;-55
2023/07/08 12:26:08;;;;;;;3.10;2.20;;;28.40;34.90;;;;;;5104581;27;45286;-56
2023/07/08 12:28:36;;;;;;;3.13;2.53;;;28.50;34.80;;;;;;5113341;27;45411;-55
2023/07/08 12:31:02;;;;;;;4.65;2.60;;;28.60;34.70;;;;;;5093955;27;44965;-57
2023/07/08 12:33:32;;;;;;;2.90;2.55;;;28.60;34.60;;;;;;5106664;27;45413;-53
2023/07/08 12:35:58;;;;;;;3.97;2.55;;;28.70;34.60;;;;;;5086124;27;45416;-57
2023/07/08 12:38:28;;;;;;;3.00;2.70;;;28.70;34.60;;;;;;5091558;27;45926;-56
2023/07/08 12:40:57;;;;;;;3.00;2.65;;;28.70;35.10;;;;;;5099907;27;44951;-57
2023/07/08 12:43:22;;;;;;;2.58;2.38;;;28.70;34.50;;;;;;5092216;27;45513;-55
2023/07/08 12:45:48;;;;;;;3.15;2.60;;;28.80;34.70;;;;;;5101090;27;45709;-56
2023/07/08 12:48:13;;;;;;;2.97;2.70;;;28.80;34.60;;;;;;5104156;27;45824;-57
2023/07/08 12:50:39;;;;;;;3.75;2.80;;;28.90;34.60;;;;;;5103144;27;45799;-56
2023/07/08 12:53:09;;;;;;;3.83;2.60;;;28.90;34.70;;;;;;5107269;27;44964;-58
2023/07/08 12:55:39;;;;;;;2.83;2.55;;;28.90;34.70;;;;;;5111619;27;45115;-57
2023/07/08 12:58:05;;;;;;;4.22;2.63;;;28.90;34.60;;;;;;5109334;27;45961;-58
2023/07/08 13:00:32;;;;;;;2.90;2.40;;;28.90;34.70;;;;;;5096354;27;44669;-57
2023/07/08 13:03:06;;;;;;;2.47;2.17;;;28.90;34.70;;;;;;5102977;27;45402;-55
2023/07/08 13:05:32;;;;;;;2.92;2.20;;;28.90;34.80;;;;;;5088756;27;45469;-56
2023/07/08 13:07:57;;;;;;;3.20;2.45;;;29.00;34.80;;;;;;5106233;27;47044;-53
2023/07/08 13:10:24;;;;;;;2.72;2.38;;;29.00;34.80;;;;;;5108513;27;45534;-56
2023/07/08 13:12:53;;;;;;;2.80;2.40;;;29.00;34.80;;;;;;5097427;27;45933;-58
2023/07/08 13:15:21;;;;;;;2.35;2.13;;;29.00;34.80;;;;;;5094187;27;45638;-60
2023/07/08 13:17:47;;;;;;;2.83;2.30;;;29.00;34.80;;;;;;5101880;27;45982;-54
2023/07/08 13:20:14;;;;;;;2.45;2.25;;;29.00;34.70;;;;;;5105891;27;45213;-59
2023/07/08 13:22:43;;;;;;;2.95;2.30;;;29.00;34.70;;;;;;5102308;27;45550;-53
2023/07/08 13:25:14;;;;;;;3.75;3.00;;;29.10;34.80;;;;;;5090762;27;45470;-56
2023/07/08 13:27:39;;;;;;;2.88;2.40;;;29.10;34.80;;;;;;5108971;27;45781;-53
2023/07/08 13:30:16;;;;;;;2.80;2.50;;;29.10;35.50;;;;;;5100059;27;46078;-61
2023/07/08 13:32:41;;;;;;;3.03;2.38;;;29.10;34.90;;;;;;5090521;27;46253;-54
2023/07/08 13:35:24;;;;;;;3.00;2.65;;;29.20;34.90;;;;;;5093098;27;45576;-55
2023/07/08 13:37:50;;;;;;;3.72;2.50;;;29.20;35.00;;;;;;5108975;27;46223;-54
2023/07/08 13:40:16;;;;;;;2.80;2.28;;;29.10;34.80;;;;;;5085451;27;45260;-55
2023/07/08 13:42:51;;;;;;;3.08;2.08;;;29.20;34.90;;;;;;5101264;27;45252;-57
2023/07/08 13:45:24;;;;;;;2.72;2.28;;;29.20;34.80;;;;;;5097204;27;44927;-53
2023/07/08 13:48:01;;;;;;;2.47;2.28;;;29.20;34.80;;;;;;5103315;27;46247;-55
2023/07/08 13:50:31;;;;;;;2.63;2.40;;;29.20;34.90;;;;;;5097028;27;45944;-60
2023/07/08 13:52:56;;;;;;;2.40;2.20;;;29.20;35.00;;;;;;5102008;27;45562;-56
2023/07/08 13:55:22;;;;;;;2.40;2.17;;;29.20;34.80;;;;;;5102516;27;45464;-55
2023/07/08 13:57:59;;;;;;;2.50;2.30;;;29.20;34.90;;;;;;5089949;27;46148;-53
2023/07/08 14:00:25;;;;;;;2.75;2.40;;;29.30;34.90;;;;;;5094671;27;45232;-56
2023/07/08 14:02:52;;;;;;;3.35;2.40;;;29.30;34.90;;;;;;5091079;27;45541;-56
2023/07/08 14:05:20;;;;;;;2.72;2.50;;;29.30;34.90;;;;;;5087614;27;45546;-58
2023/07/08 14:07:45;;;;;;;2.83;2.50;;;29.30;34.90;;;;;;5106310;27;45427;-55
2023/07/08 14:10:12;;;;;;;2.88;2.50;;;29.30;34.90;;;;;;5108324;27;45238;-53
2023/07/08 14:12:37;;;;;;;3.00;2.42;;;29.40;35.00;;;;;;5111587;27;45377;-52
2023/07/08 14:15:07;;;;;;;2.60;2.22;;;29.40;34.90;;;;;;5102807;27;44882;-59
2023/07/08 14:17:32;;;;;;;2.28;2.08;;;29.40;35.00;;;;;;5096360;27;45942;-56
2023/07/08 14:19:58;;;;;;;3.03;2.53;;;29.40;35.00;;;;;;5085639;27;46437;-52
2023/07/08 14:22:27;;;;;;;2.58;2.33;;;29.40;35.00;;;;;;5107378;27;45710;-53
2023/07/08 14:24:53;;;;;;;2.65;2.45;;;29.40;35.00;;;;;;5132382;27;48908;-52
2023/07/08 14:27:19;;;;;;;3.30;2.40;;;29.40;35.00;;;;;;5100339;27;46346;-56
2023/07/08 14:29:47;;;;;;;2.20;2.00;;;29.40;35.00;;;;;;5128440;27;45476;-56
2023/07/08 14:32:26;;;;;;;3.15;2.67;;;29.40;35.00;;;;;;5118591;27;45571;-55
2023/07/08 14:34:54;;;;;;;2.60;2.20;;;29.40;35.10;;;;;;5107811;27;45327;-54
2023/07/08 14:37:20;;;;;;;2.30;2.10;;;29.50;35.10;;;;;;5096105;27;46965;-58
2023/07/08 14:39:45;;;;;;;2.20;1.83;;;29.50;35.10;;;;;;5132121;27;45315;-53
2023/07/08 14:42:12;;;;;;;2.35;2.15;;;29.50;35.10;;;;;;5106532;27;44885;-53
2023/07/08 14:44:37;;;;;;;3.15;2.30;;;29.50;35.10;;;;;;5106401;27;44918;-52
2023/07/08 14:47:08;;;;;;;3.22;2.30;;;29.50;35.10;;;;;;5081223;27;46633;-55
2023/07/08 14:49:33;;;;;;;3.35;2.28;;;29.50;35.10;;;;;;5130533;27;45295;-55
2023/07/08 14:51:59;;;;;;;3.17;2.33;;;29.50;35.10;;;;;;5122990;27;45404;-57
2023/07/08 14:54:24;;;;;;;2.30;2.10;;;29.50;35.10;;;;;;5121896;27;45836;-55
2023/07/08 14:56:50;;;;;;;2.40;2.20;;;29.50;35.10;;;;;;5126603;27;45876;-53
2023/07/08 14:59:20;;;;;;;2.60;2.40;;;29.50;35.10;;;;;;5106569;27;45280;-55
2023/07/08 15:01:45;;;;;;;2.33;2.10;;;29.50;35.20;;;;;;5103606;27;46896;-54
2023/07/08 15:04:11;;;;;;;2.60;2.30;;;29.50;35.20;;;;;;5109807;27;45507;-58
2023/07/08 15:06:37;;;;;;;2.28;2.08;;;29.50;35.80;;;;;;5125126;27;46207;-56
2023/07/08 15:09:03;;;;;;;2.75;2.40;;;29.50;35.20;;;;;;5136245;27;45170;-52
2023/07/08 15:11:28;;;;;;;2.35;2.10;;;29.50;35.20;;;;;;5127665;27;45141;-56
2023/07/08 15:13:54;;;;;;;2.60;1.98;;;29.60;35.20;;;;;;5112462;27;45533;-53
2023/07/08 15:16:19;;;;;;;2.40;2.20;;;29.60;35.20;;;;;;5115488;27;46285;-55
2023/07/08 15:18:45;;;;;;;2.90;2.60;;;29.60;35.20;;;;;;5112653;27;45376;-54
2023/07/08 15:21:14;;;;;;;2.78;2.38;;;29.60;35.20;;;;;;5130804;27;45573;-55
2023/07/08 15:23:40;;;;;;;2.35;2.15;;;29.60;35.20;;;;;;5128596;27;45761;-53
2023/07/08 15:26:05;;;;;;;2.17;1.90;;;29.60;35.20;;;;;;5125502;27;46071;-53
2023/07/08 15:28:47;;;;;;;3.33;2.33;;;29.60;35.20;;;;;;5113159;27;45425;-59
2023/07/08 15:31:13;;;;;;;2.40;2.08;;;29.60;35.20;;;;;;5118606;27;45731;-57
2023/07/08 15:33:39;;;;;;;3.25;2.38;;;29.60;35.20;;;;;;5107702;27;46161;-57
2023/07/08 15:36:04;;;;;;;2.55;2.13;;;29.70;35.30;;;;;;5131344;27;45849;-59
2023/07/08 15:38:30;;;;;;;2.60;2.38;;;29.70;35.20;;;;;;5138353;27;44661;-55
2023/07/08 15:40:55;;;;;;;2.70;2.30;;;29.70;35.20;;;;;;5130178;27;45397;-54
2023/07/08 15:43:21;;;;;;;2.60;2.00;;;29.70;35.30;;;;;;5091424;27;45262;-55
2023/07/08 15:45:46;;;;;;;2.38;2.17;;;29.70;35.20;;;;;;5122953;27;45506;-56
2023/07/08 15:48:16;;;;;;;2.60;2.20;;;29.70;35.30;;;;;;5132833;27;45226;-55
2023/07/08 15:50:42;;;;;;;3.22;2.30;;;29.70;35.30;;;;;;5111324;27;45737;-52
2023/07/08 15:53:07;;;;;;;2.38;1.92;;;29.70;35.30;;;;;;5124192;27;45321;-55
2023/07/08 15:55:38;;;;;;;2.78;2.45;;;29.70;35.30;;;;;;5120293;27;46010;-53
2023/07/08 15:58:10;;;;;;;2.47;2.20;;;29.70;35.30;;;;;;5103029;27;45279;-56
2023/07/08 16:00:37;;;;;;;2.45;2.25;;;29.70;35.30;;;;;;5120255;27;45597;-56